sensor_id;sensor_type;location;lat;lon;timestamp;pressure;altitude;pressure_sealevel;temperature;humidity
64886;BME280;51514;52.206;5.114;2022-11-18T00:00:29;99507.50;;;9.15;87.99
64886;BME280;51514;52.206;5.114;2022-11-18T00:02:55;99509.38;;;9.15;88.46
64886;BME280;51514;52.206;5.114;2022-11-18T00:05:20;99513.25;;;9.12;88.39
64886;BME280;51514;52.206;5.114;2022-11-18T00:07:45;99514.91;;;9.13;87.75
64886;BME280;51514;52.206;5.114;2022-11-18T00:10:11;99508.53;;;9.14;87.64
64886;BME280;51514;52.206;5.114;2022-11-18T00:12:36;99512.22;;;9.13;87.75
64886;BME280;51514;52.206;5.114;2022-11-18T00:15:20;99523.00;;;9.13;87.89
64886;BME280;51514;52.206;5.114;2022-11-18T00:17:45;99512.22;;;9.13;87.65
64886;BME280;51514;52.206;5.114;2022-11-18T00:20:10;99519.28;;;9.14;87.83
64886;BME280;51514;52.206;5.114;2022-11-18T00:22:36;99527.53;;;9.13;87.47
64886;BME280;51514;52.206;5.114;2022-11-18T00:25:01;99533.75;;;9.13;87.86
64886;BME280;51514;52.206;5.114;2022-11-18T00:27:29;99530.69;;;9.17;87.55
64886;BME280;51514;52.206;5.114;2022-11-18T00:29:56;99541.47;;;9.17;87.12
64886;BME280;51514;52.206;5.114;2022-11-18T00:32:21;99545.81;;;9.18;87.00
64886;BME280;51514;52.206;5.114;2022-11-18T00:34:46;99546.28;;;9.21;86.78
64886;BME280;51514;52.206;5.114;2022-11-18T00:37:12;99552.88;;;9.19;87.01
64886;BME280;51514;52.206;5.114;2022-11-18T00:39:37;99548.34;;;9.19;86.99
64886;BME280;51514;52.206;5.114;2022-11-18T00:42:03;99555.56;;;9.19;86.88
64886;BME280;51514;52.206;5.114;2022-11-18T00:44:47;99553.22;;;9.15;86.27
64886;BME280;51514;52.206;5.114;2022-11-18T00:47:12;99549.88;;;9.13;86.35
64886;BME280;51514;52.206;5.114;2022-11-18T00:49:37;99560.81;;;9.12;86.21
64886;BME280;51514;52.206;5.114;2022-11-18T00:52:03;99551.91;;;9.11;86.47
64886;BME280;51514;52.206;5.114;2022-11-18T00:54:29;99575.94;;;9.13;85.91
64886;BME280;51514;52.206;5.114;2022-11-18T00:56:55;99573.41;;;9.11;85.78
64886;BME280;51514;52.206;5.114;2022-11-18T00:59:20;99578.34;;;9.08;86.19
64886;BME280;51514;52.206;5.114;2022-11-18T01:01:45;99579.19;;;9.08;86.28
64886;BME280;51514;52.206;5.114;2022-11-18T01:04:11;99576.84;;;9.05;85.80
64886;BME280;51514;52.206;5.114;2022-11-18T01:06:36;99572.47;;;9.04;86.13
64886;BME280;51514;52.206;5.114;2022-11-18T01:09:02;99581.56;;;9.03;86.48
64886;BME280;51514;52.206;5.114;2022-11-18T01:11:27;99579.22;;;9.00;85.84
64886;BME280;51514;52.206;5.114;2022-11-18T01:14:11;99584.78;;;8.99;85.75
64886;BME280;51514;52.206;5.114;2022-11-18T01:16:36;99594.22;;;8.95;85.46
64886;BME280;51514;52.206;5.114;2022-11-18T01:19:01;99600.78;;;8.92;85.95
64886;BME280;51514;52.206;5.114;2022-11-18T01:21:28;99602.16;;;8.88;86.50
64886;BME280;51514;52.206;5.114;2022-11-18T01:23:53;99598.44;;;8.89;86.17
64886;BME280;51514;52.206;5.114;2022-11-18T01:26:18;99605.03;;;8.87;86.39
64886;BME280;51514;52.206;5.114;2022-11-18T01:28:44;99606.22;;;8.84;86.78
64886;BME280;51514;52.206;5.114;2022-11-18T01:31:12;99617.81;;;8.85;86.79
64886;BME280;51514;52.206;5.114;2022-11-18T01:33:38;99610.28;;;8.80;86.18
64886;BME280;51514;52.206;5.114;2022-11-18T01:36:04;99608.78;;;8.77;86.66
64886;BME280;51514;52.206;5.114;2022-11-18T01:38:29;99616.66;;;8.79;86.69
64886;BME280;51514;52.206;5.114;2022-11-18T01:40:55;99617.03;;;8.76;86.48
64886;BME280;51514;52.206;5.114;2022-11-18T01:43:22;99629.16;;;8.72;85.99
64886;BME280;51514;52.206;5.114;2022-11-18T01:45:51;99624.44;;;8.74;86.37
64886;BME280;51514;52.206;5.114;2022-11-18T01:48:33;99626.13;;;8.75;86.04
64886;BME280;51514;52.206;5.114;2022-11-18T01:51:08;99632.13;;;8.77;86.06
64886;BME280;51514;52.206;5.114;2022-11-18T01:53:43;99625.72;;;8.78;85.76
64886;BME280;51514;52.206;5.114;2022-11-18T01:56:14;99627.59;;;8.77;86.10
64886;BME280;51514;52.206;5.114;2022-11-18T01:58:49;99638.34;;;8.77;85.56
64886;BME280;51514;52.206;5.114;2022-11-18T02:01:17;99631.09;;;8.78;86.12
64886;BME280;51514;52.206;5.114;2022-11-18T02:03:44;99633.78;;;8.78;85.67
64886;BME280;51514;52.206;5.114;2022-11-18T02:06:10;99634.81;;;8.77;85.96
64886;BME280;51514;52.206;5.114;2022-11-18T02:08:37;99635.19;;;8.74;85.57
64886;BME280;51514;52.206;5.114;2022-11-18T02:11:08;99643.91;;;8.76;85.80
64886;BME280;51514;52.206;5.114;2022-11-18T02:13:33;99639.72;;;8.73;86.22
64886;BME280;51514;52.206;5.114;2022-11-18T02:16:18;99647.78;;;8.73;86.47
64886;BME280;51514;52.206;5.114;2022-11-18T02:18:57;99653.31;;;8.72;86.55
64886;BME280;51514;52.206;5.114;2022-11-18T02:21:41;99649.31;;;8.68;86.56
64886;BME280;51514;52.206;5.114;2022-11-18T02:24:39;99657.38;;;8.68;86.71
64886;BME280;51514;52.206;5.114;2022-11-18T02:30:06;99648.00;;;8.64;87.07
64886;BME280;51514;52.206;5.114;2022-11-18T02:33:14;99657.06;;;8.63;87.19
64886;BME280;51514;52.206;5.114;2022-11-18T02:35:49;99654.56;;;8.61;87.06
64886;BME280;51514;52.206;5.114;2022-11-18T02:38:29;99669.66;;;8.62;87.22
64886;BME280;51514;52.206;5.114;2022-11-18T02:41:08;99662.28;;;8.64;87.47
64886;BME280;51514;52.206;5.114;2022-11-18T02:43:39;99670.50;;;8.63;87.25
64886;BME280;51514;52.206;5.114;2022-11-18T02:46:10;99681.44;;;8.61;86.87
64886;BME280;51514;52.206;5.114;2022-11-18T02:48:42;99673.72;;;8.58;87.68
64886;BME280;51514;52.206;5.114;2022-11-18T02:51:10;99680.63;;;8.53;87.25
64886;BME280;51514;52.206;5.114;2022-11-18T02:53:39;99676.44;;;8.50;88.02
64886;BME280;51514;52.206;5.114;2022-11-18T02:56:05;99688.03;;;8.51;87.87
64886;BME280;51514;52.206;5.114;2022-11-18T02:58:32;99685.34;;;8.51;88.48
64886;BME280;51514;52.206;5.114;2022-11-18T03:00:59;99687.84;;;8.52;87.87
64886;BME280;51514;52.206;5.114;2022-11-18T03:03:31;99688.53;;;8.54;88.66
64886;BME280;51514;52.206;5.114;2022-11-18T03:06:08;99693.53;;;8.57;88.63
64886;BME280;51514;52.206;5.114;2022-11-18T03:09:29;99691.50;;;8.59;88.10
64886;BME280;51514;52.206;5.114;2022-11-18T03:11:31;99695.19;;;8.58;87.72
64886;BME280;51514;52.206;5.114;2022-11-18T03:14:37;99699.91;;;8.56;87.79
64886;BME280;51514;52.206;5.114;2022-11-18T03:17:15;99701.41;;;8.59;87.52
64886;BME280;51514;52.206;5.114;2022-11-18T03:25:54;99711.66;;;8.55;87.26
64886;BME280;51514;52.206;5.114;2022-11-18T03:28:23;99713.88;;;8.52;87.55
64886;BME280;51514;52.206;5.114;2022-11-18T03:31:58;99725.47;;;8.52;87.71
64886;BME280;51514;52.206;5.114;2022-11-18T03:33:56;99723.78;;;8.51;87.13
64886;BME280;51514;52.206;5.114;2022-11-18T03:36:26;99727.31;;;8.52;87.24
64886;BME280;51514;52.206;5.114;2022-11-18T03:38:56;99725.63;;;8.51;86.96
64886;BME280;51514;52.206;5.114;2022-11-18T03:41:24;99716.56;;;8.52;87.71
64886;BME280;51514;52.206;5.114;2022-11-18T03:43:57;99727.31;;;8.52;87.85
64886;BME280;51514;52.206;5.114;2022-11-18T03:49:04;99736.72;;;8.48;87.09
64886;BME280;51514;52.206;5.114;2022-11-18T03:51:36;99738.72;;;8.46;87.46
64886;BME280;51514;52.206;5.114;2022-11-18T03:54:25;99740.56;;;8.45;86.79
64886;BME280;51514;52.206;5.114;2022-11-18T03:56:57;99745.09;;;8.45;87.27
64886;BME280;51514;52.206;5.114;2022-11-18T03:59:31;99750.81;;;8.50;87.17
64886;BME280;51514;52.206;5.114;2022-11-18T04:02:03;99752.16;;;8.46;86.92
64886;BME280;51514;52.206;5.114;2022-11-18T04:04:31;99751.84;;;8.40;87.67
64886;BME280;51514;52.206;5.114;2022-11-18T04:07:07;99762.09;;;8.37;87.98
64886;BME280;51514;52.206;5.114;2022-11-18T04:09:41;99759.22;;;8.38;87.59
64886;BME280;51514;52.206;5.114;2022-11-18T04:12:13;99755.03;;;8.36;87.65
64886;BME280;51514;52.206;5.114;2022-11-18T04:14:42;99753.19;;;8.36;87.66
64886;BME280;51514;52.206;5.114;2022-11-18T04:17:12;99764.78;;;8.37;87.62
64886;BME280;51514;52.206;5.114;2022-11-18T04:19:39;99770.66;;;8.40;87.32
64886;BME280;51514;52.206;5.114;2022-11-18T04:22:05;99764.59;;;8.38;87.31
64886;BME280;51514;52.206;5.114;2022-11-18T04:24:30;99772.84;;;8.37;87.50
64886;BME280;51514;52.206;5.114;2022-11-18T04:26:56;99775.69;;;8.35;87.91
64886;BME280;51514;52.206;5.114;2022-11-18T04:29:21;99779.53;;;8.33;87.54
64886;BME280;51514;52.206;5.114;2022-11-18T04:31:47;99786.09;;;8.30;88.19
64886;BME280;51514;52.206;5.114;2022-11-18T04:34:12;99789.78;;;8.29;87.54
64886;BME280;51514;52.206;5.114;2022-11-18T04:36:38;99794.13;;;8.30;88.03
64886;BME280;51514;52.206;5.114;2022-11-18T04:39:03;99803.19;;;8.29;88.12
64886;BME280;51514;52.206;5.114;2022-11-18T04:41:28;99798.84;;;8.28;88.24
64886;BME280;51514;52.206;5.114;2022-11-18T04:44:17;99799.84;;;8.27;87.45
64886;BME280;51514;52.206;5.114;2022-11-18T04:46:43;99803.38;;;8.28;87.46
64886;BME280;51514;52.206;5.114;2022-11-18T04:49:11;99806.38;;;8.25;86.80
64886;BME280;51514;52.206;5.114;2022-11-18T04:51:37;99801.19;;;8.23;86.81
64886;BME280;51514;52.206;5.114;2022-11-18T04:54:03;99812.13;;;8.22;87.06
64886;BME280;51514;52.206;5.114;2022-11-18T04:56:29;99817.50;;;8.22;87.23
64886;BME280;51514;52.206;5.114;2022-11-18T04:58:55;99813.97;;;8.21;87.14
64886;BME280;51514;52.206;5.114;2022-11-18T05:01:21;99827.56;;;8.20;87.36
64886;BME280;51514;52.206;5.114;2022-11-18T05:03:46;99826.53;;;8.21;88.13
64886;BME280;51514;52.206;5.114;2022-11-18T05:06:11;99833.41;;;8.23;88.47
64886;BME280;51514;52.206;5.114;2022-11-18T05:08:37;99830.72;;;8.23;88.70
64886;BME280;51514;52.206;5.114;2022-11-18T05:11:06;99836.09;;;8.23;88.31
64886;BME280;51514;52.206;5.114;2022-11-18T05:13:50;99838.59;;;8.25;88.82
64886;BME280;51514;52.206;5.114;2022-11-18T05:16:15;99839.13;;;8.28;88.71
64886;BME280;51514;52.206;5.114;2022-11-18T05:18:41;99841.81;;;8.28;88.23
64886;BME280;51514;52.206;5.114;2022-11-18T05:21:06;99839.44;;;8.25;88.85
64886;BME280;51514;52.206;5.114;2022-11-18T05:23:32;99846.81;;;8.23;88.32
64886;BME280;51514;52.206;5.114;2022-11-18T05:26:02;99850.19;;;8.25;88.16
64886;BME280;51514;52.206;5.114;2022-11-18T05:28:27;99845.50;;;8.27;87.97
64886;BME280;51514;52.206;5.114;2022-11-18T05:30:52;99853.56;;;8.27;88.21
64886;BME280;51514;52.206;5.114;2022-11-18T05:33:18;99856.06;;;8.29;88.01
64886;BME280;51514;52.206;5.114;2022-11-18T05:35:43;99857.75;;;8.30;88.29
64886;BME280;51514;52.206;5.114;2022-11-18T05:38:08;99863.00;;;8.31;88.34
64886;BME280;51514;52.206;5.114;2022-11-18T05:40:34;99866.53;;;8.32;88.38
64886;BME280;51514;52.206;5.114;2022-11-18T05:42:59;99873.53;;;8.33;88.40
64886;BME280;51514;52.206;5.114;2022-11-18T05:45:40;99873.38;;;8.34;88.30
64886;BME280;51514;52.206;5.114;2022-11-18T05:48:07;99867.69;;;8.37;88.61
64886;BME280;51514;52.206;5.114;2022-11-18T05:50:35;99875.56;;;8.39;89.07
64886;BME280;51514;52.206;5.114;2022-11-18T05:53:01;99880.44;;;8.44;89.01
64886;BME280;51514;52.206;5.114;2022-11-18T05:55:35;99881.09;;;8.37;89.25
64886;BME280;51514;52.206;5.114;2022-11-18T05:58:02;99879.09;;;8.39;89.57
64886;BME280;51514;52.206;5.114;2022-11-18T06:00:28;99882.47;;;8.41;89.90
64886;BME280;51514;52.206;5.114;2022-11-18T06:02:54;99879.41;;;8.45;89.77
64886;BME280;51514;52.206;5.114;2022-11-18T06:05:22;99886.31;;;8.47;89.54
64886;BME280;51514;52.206;5.114;2022-11-18T06:07:50;99887.66;;;8.43;90.55
64886;BME280;51514;52.206;5.114;2022-11-18T06:10:20;99887.47;;;8.45;91.21
64886;BME280;51514;52.206;5.114;2022-11-18T06:12:50;99885.81;;;8.44;91.57
64886;BME280;51514;52.206;5.114;2022-11-18T06:15:26;99891.84;;;8.46;92.14
64886;BME280;51514;52.206;5.114;2022-11-18T06:17:59;99897.88;;;8.48;91.56
64886;BME280;51514;52.206;5.114;2022-11-18T06:20:26;99905.94;;;8.48;92.18
64886;BME280;51514;52.206;5.114;2022-11-18T06:22:53;99905.78;;;8.49;92.25
64886;BME280;51514;52.206;5.114;2022-11-18T06:25:20;99910.00;;;8.52;92.80
64886;BME280;51514;52.206;5.114;2022-11-18T06:27:47;99914.19;;;8.54;92.25
64886;BME280;51514;52.206;5.114;2022-11-18T06:30:13;99914.84;;;8.56;92.48
64886;BME280;51514;52.206;5.114;2022-11-18T06:32:39;99918.19;;;8.58;92.62
64886;BME280;51514;52.206;5.114;2022-11-18T06:35:04;99920.56;;;8.61;92.14
64886;BME280;51514;52.206;5.114;2022-11-18T06:37:30;99925.94;;;8.61;92.78
64886;BME280;51514;52.206;5.114;2022-11-18T06:39:55;99934.69;;;8.63;92.88
64886;BME280;51514;52.206;5.114;2022-11-18T06:42:20;99940.53;;;8.67;92.42
64886;BME280;51514;52.206;5.114;2022-11-18T06:45:05;99941.38;;;8.67;92.35
64886;BME280;51514;52.206;5.114;2022-11-18T06:47:30;99956.50;;;8.68;92.65
64886;BME280;51514;52.206;5.114;2022-11-18T06:49:56;99955.66;;;8.68;92.22
64886;BME280;51514;52.206;5.114;2022-11-18T06:52:21;99955.81;;;8.66;92.74
64886;BME280;51514;52.206;5.114;2022-11-18T06:54:47;99960.34;;;8.66;92.46
64886;BME280;51514;52.206;5.114;2022-11-18T06:57:12;99964.06;;;8.65;93.01
64886;BME280;51514;52.206;5.114;2022-11-18T06:59:37;99964.06;;;8.65;93.05
64886;BME280;51514;52.206;5.114;2022-11-18T07:02:03;99965.06;;;8.64;93.44
64886;BME280;51514;52.206;5.114;2022-11-18T07:04:28;99976.47;;;8.66;93.17
64886;BME280;51514;52.206;5.114;2022-11-18T07:06:53;99970.59;;;8.62;93.67
64886;BME280;51514;52.206;5.114;2022-11-18T07:09:19;99974.13;;;8.63;93.43
64886;BME280;51514;52.206;5.114;2022-11-18T07:11:44;99972.28;;;8.63;93.80
64886;BME280;51514;52.206;5.114;2022-11-18T07:14:11;99981.19;;;8.64;93.42
64886;BME280;51514;52.206;5.114;2022-11-18T07:16:37;99986.22;;;8.67;93.70
64886;BME280;51514;52.206;5.114;2022-11-18T07:19:11;99988.25;;;8.65;93.77
64886;BME280;51514;52.206;5.114;2022-11-18T07:21:37;99993.28;;;8.68;93.56
64886;BME280;51514;52.206;5.114;2022-11-18T07:24:07;99998.81;;;8.66;93.66
64886;BME280;51514;52.206;5.114;2022-11-18T07:26:34;100002.84;;;8.70;93.57
64886;BME280;51514;52.206;5.114;2022-11-18T07:29:00;100006.06;;;8.74;92.91
64886;BME280;51514;52.206;5.114;2022-11-18T07:31:25;100008.22;;;8.78;92.95
64886;BME280;51514;52.206;5.114;2022-11-18T07:33:51;100014.13;;;8.82;93.07
64886;BME280;51514;52.206;5.114;2022-11-18T07:36:22;100011.25;;;8.84;93.43
64886;BME280;51514;52.206;5.114;2022-11-18T07:38:48;100022.50;;;8.87;92.97
64886;BME280;51514;52.206;5.114;2022-11-18T07:41:17;100027.53;;;8.90;92.83
64886;BME280;51514;52.206;5.114;2022-11-18T07:43:43;100035.44;;;8.92;92.94
64886;BME280;51514;52.206;5.114;2022-11-18T07:46:10;100038.50;;;8.97;92.66
64886;BME280;51514;52.206;5.114;2022-11-18T07:48:35;100038.13;;;9.00;93.11
64886;BME280;51514;52.206;5.114;2022-11-18T07:51:01;100040.66;;;9.01;92.53
64886;BME280;51514;52.206;5.114;2022-11-18T07:53:29;100045.38;;;9.07;92.30
64886;BME280;51514;52.206;5.114;2022-11-18T07:55:55;100045.84;;;9.11;92.82
64886;BME280;51514;52.206;5.114;2022-11-18T07:58:20;100055.13;;;9.17;92.38
64886;BME280;51514;52.206;5.114;2022-11-18T08:00:45;100051.25;;;9.27;92.31
64886;BME280;51514;52.206;5.114;2022-11-18T08:03:11;100058.13;;;9.38;91.85
64886;BME280;51514;52.206;5.114;2022-11-18T08:05:36;100059.44;;;9.50;91.57
64886;BME280;51514;52.206;5.114;2022-11-18T08:08:01;100067.16;;;9.53;91.16
64886;BME280;51514;52.206;5.114;2022-11-18T08:10:27;100070.84;;;9.52;90.86
64886;BME280;51514;52.206;5.114;2022-11-18T08:12:52;100078.28;;;9.50;91.11
64886;BME280;51514;52.206;5.114;2022-11-18T08:15:17;100076.25;;;9.44;91.15
64886;BME280;51514;52.206;5.114;2022-11-18T08:17:43;100079.31;;;9.41;91.08
64886;BME280;51514;52.206;5.114;2022-11-18T08:20:09;100080.31;;;9.40;91.38
64886;BME280;51514;52.206;5.114;2022-11-18T08:22:34;100084.84;;;9.39;91.04
64886;BME280;51514;52.206;5.114;2022-11-18T08:24:59;100090.25;;;9.39;91.08
64886;BME280;51514;52.206;5.114;2022-11-18T08:27:25;100088.53;;;9.46;91.07
64886;BME280;51514;52.206;5.114;2022-11-18T08:29:50;100098.28;;;9.47;91.21
64886;BME280;51514;52.206;5.114;2022-11-18T08:32:15;100095.44;;;9.49;90.72
64886;BME280;51514;52.206;5.114;2022-11-18T08:34:41;100095.44;;;9.49;90.61
64886;BME280;51514;52.206;5.114;2022-11-18T08:37:06;100097.75;;;9.52;90.78
64886;BME280;51514;52.206;5.114;2022-11-18T08:39:31;100099.13;;;9.56;90.98
64886;BME280;51514;52.206;5.114;2022-11-18T08:41:57;100098.63;;;9.61;90.86
64886;BME280;51514;52.206;5.114;2022-11-18T08:44:22;100102.47;;;9.66;90.71
64886;BME280;51514;52.206;5.114;2022-11-18T08:46:47;100099.09;;;9.72;90.48
64886;BME280;51514;52.206;5.114;2022-11-18T08:49:13;100100.78;;;9.73;90.28
64886;BME280;51514;52.206;5.114;2022-11-18T08:51:38;100099.94;;;9.73;89.88
64886;BME280;51514;52.206;5.114;2022-11-18T08:54:04;100104.47;;;9.72;89.74
64886;BME280;51514;52.206;5.114;2022-11-18T08:56:29;100110.03;;;9.71;90.01
64886;BME280;51514;52.206;5.114;2022-11-18T08:58:54;100111.38;;;9.67;89.69
64886;BME280;51514;52.206;5.114;2022-11-18T09:01:20;100115.91;;;9.66;89.86
64886;BME280;51514;52.206;5.114;2022-11-18T09:03:46;100121.31;;;9.66;89.96
64886;BME280;51514;52.206;5.114;2022-11-18T09:08:37;100119.63;;;9.65;89.96
64886;BME280;51514;52.206;5.114;2022-11-18T09:11:13;100121.00;;;9.61;89.44
64886;BME280;51514;52.206;5.114;2022-11-18T09:13:39;100131.38;;;9.64;89.52
64886;BME280;51514;52.206;5.114;2022-11-18T09:16:05;100138.47;;;9.65;89.84
64886;BME280;51514;52.206;5.114;2022-11-18T09:18:31;100148.72;;;9.70;89.58
64886;BME280;51514;52.206;5.114;2022-11-18T09:20:59;100145.72;;;9.73;89.79
64886;BME280;51514;52.206;5.114;2022-11-18T09:23:25;100148.53;;;9.79;89.55
64886;BME280;51514;52.206;5.114;2022-11-18T09:26:01;100144.50;;;9.83;89.24
64886;BME280;51514;52.206;5.114;2022-11-18T09:28:27;100154.25;;;9.93;89.03
64886;BME280;51514;52.206;5.114;2022-11-18T09:30:52;100159.25;;;10.12;89.51
64886;BME280;51514;52.206;5.114;2022-11-18T09:33:18;100156.22;;;10.23;88.85
64886;BME280;51514;52.206;5.114;2022-11-18T09:35:44;100157.56;;;10.27;88.18
64886;BME280;51514;52.206;5.114;2022-11-18T09:38:09;100162.94;;;10.27;88.29
64886;BME280;51514;52.206;5.114;2022-11-18T09:46:03;100164.59;;;10.28;88.33
64886;BME280;51514;52.206;5.114;2022-11-18T09:48:30;100162.19;;;10.41;88.18
64886;BME280;51514;52.206;5.114;2022-11-18T09:51:14;100167.84;;;10.63;88.00
64886;BME280;51514;52.206;5.114;2022-11-18T09:53:43;100173.84;;;10.73;87.17
64886;BME280;51514;52.206;5.114;2022-11-18T09:56:15;100176.56;;;10.73;86.66
64886;BME280;51514;52.206;5.114;2022-11-18T09:58:41;100186.53;;;10.64;85.23
64886;BME280;51514;52.206;5.114;2022-11-18T10:01:12;100198.22;;;10.56;85.39
64886;BME280;51514;52.206;5.114;2022-11-18T10:03:39;100197.38;;;10.56;85.77
64886;BME280;51514;52.206;5.114;2022-11-18T10:09:03;100199.91;;;10.49;86.19
64886;BME280;51514;52.206;5.114;2022-11-18T10:11:39;100205.28;;;10.49;86.66
64886;BME280;51514;52.206;5.114;2022-11-18T10:20:31;100206.34;;;10.40;86.29
64886;BME280;51514;52.206;5.114;2022-11-18T10:23:21;100217.47;;;10.37;86.41
64886;BME280;51514;52.206;5.114;2022-11-18T10:25:48;100226.88;;;10.41;86.46
64886;BME280;51514;52.206;5.114;2022-11-18T10:28:22;100220.81;;;10.39;86.27
64886;BME280;51514;52.206;5.114;2022-11-18T10:30:48;100224.00;;;10.43;86.58
64886;BME280;51514;52.206;5.114;2022-11-18T10:33:27;100226.38;;;10.46;87.04
64886;BME280;51514;52.206;5.114;2022-11-18T10:38:41;100229.03;;;10.54;86.96
64886;BME280;51514;52.206;5.114;2022-11-18T10:41:18;100234.25;;;10.55;86.52
64886;BME280;51514;52.206;5.114;2022-11-18T10:43:52;100240.31;;;10.57;86.52
64886;BME280;51514;52.206;5.114;2022-11-18T10:46:32;100235.06;;;10.64;87.04
64886;BME280;51514;52.206;5.114;2022-11-18T10:51:33;100231.03;;;10.68;87.19
64886;BME280;51514;52.206;5.114;2022-11-18T10:54:20;100239.56;;;10.72;86.88
64886;BME280;51514;52.206;5.114;2022-11-18T10:56:56;100236.03;;;10.71;87.11
64886;BME280;51514;52.206;5.114;2022-11-18T10:59:54;100236.88;;;10.72;86.05
64886;BME280;51514;52.206;5.114;2022-11-18T11:02:30;100232.84;;;10.76;86.73
64886;BME280;51514;52.206;5.114;2022-11-18T11:05:15;100239.94;;;10.69;86.57
64886;BME280;51514;52.206;5.114;2022-11-18T11:07:40;100235.56;;;10.68;86.61
64886;BME280;51514;52.206;5.114;2022-11-18T11:12:48;100244.50;;;10.60;87.28
64886;BME280;51514;52.206;5.114;2022-11-18T11:15:20;100249.56;;;10.63;87.54
64886;BME280;51514;52.206;5.114;2022-11-18T11:18:11;100254.47;;;10.59;87.51
64886;BME280;51514;52.206;5.114;2022-11-18T11:20:57;100256.84;;;10.54;88.01
64886;BME280;51514;52.206;5.114;2022-11-18T11:23:23;100256.84;;;10.54;88.65
64886;BME280;51514;52.206;5.114;2022-11-18T11:29:19;100250.59;;;10.54;89.65
64886;BME280;51514;52.206;5.114;2022-11-18T11:32:55;100253.81;;;10.57;89.55
64886;BME280;51514;52.206;5.114;2022-11-18T11:37:58;100261.03;;;10.57;89.25
64886;BME280;51514;52.206;5.114;2022-11-18T11:40:36;100260.34;;;10.63;89.56
64886;BME280;51514;52.206;5.114;2022-11-18T11:51:49;100269.59;;;10.69;89.73
64886;BME280;51514;52.206;5.114;2022-11-18T11:54:27;100270.63;;;10.68;89.17
64886;BME280;51514;52.206;5.114;2022-11-18T11:57:03;100275.34;;;10.66;89.15
64886;BME280;51514;52.206;5.114;2022-11-18T12:04:56;100270.75;;;10.74;89.58
64886;BME280;51514;52.206;5.114;2022-11-18T12:07:26;100280.34;;;10.77;89.88
64886;BME280;51514;52.206;5.114;2022-11-18T12:10:06;100282.72;;;10.80;90.08
64886;BME280;51514;52.206;5.114;2022-11-18T12:12:42;100280.19;;;10.78;89.77
64886;BME280;51514;52.206;5.114;2022-11-18T12:20:53;100284.19;;;10.82;90.33
64886;BME280;51514;52.206;5.114;2022-11-18T12:23:24;100283.34;;;10.82;90.69
64886;BME280;51514;52.206;5.114;2022-11-18T12:26:03;100288.25;;;10.86;91.17
64886;BME280;51514;52.206;5.114;2022-11-18T12:28:40;100290.91;;;10.94;91.04
64886;BME280;51514;52.206;5.114;2022-11-18T12:33:50;100290.56;;;10.97;89.94
64886;BME280;51514;52.206;5.114;2022-11-18T12:36:34;100289.19;;;11.02;89.92
64886;BME280;51514;52.206;5.114;2022-11-18T12:41:57;100300.63;;;11.04;89.77
64886;BME280;51514;52.206;5.114;2022-11-18T12:44:43;100299.31;;;11.00;88.58
64886;BME280;51514;52.206;5.114;2022-11-18T12:47:10;100296.47;;;11.01;88.91
64886;BME280;51514;52.206;5.114;2022-11-18T12:54:53;100297.13;;;11.03;87.40
64886;BME280;51514;52.206;5.114;2022-11-18T12:57:27;100303.88;;;10.99;86.71
64886;BME280;51514;52.206;5.114;2022-11-18T12:59:54;100306.22;;;11.02;87.15
64886;BME280;51514;52.206;5.114;2022-11-18T13:02:24;100310.78;;;11.02;86.87
64886;BME280;51514;52.206;5.114;2022-11-18T13:05:19;100309.56;;;11.04;87.23
64886;BME280;51514;52.206;5.114;2022-11-18T13:07:52;100311.94;;;11.07;86.49
64886;BME280;51514;52.206;5.114;2022-11-18T13:10:49;100321.53;;;11.10;85.93
64886;BME280;51514;52.206;5.114;2022-11-18T13:13:31;100315.13;;;11.11;86.22
64886;BME280;51514;52.206;5.114;2022-11-18T13:16:01;100315.28;;;11.09;85.06
64886;BME280;51514;52.206;5.114;2022-11-18T13:18:49;100324.41;;;11.08;85.59
64886;BME280;51514;52.206;5.114;2022-11-18T13:21:20;100313.94;;;11.05;85.17
64886;BME280;51514;52.206;5.114;2022-11-18T13:24:05;100318.34;;;11.06;85.26
64886;BME280;51514;52.206;5.114;2022-11-18T13:26:32;100323.91;;;11.05;85.11
64886;BME280;51514;52.206;5.114;2022-11-18T13:34:49;100334.53;;;11.06;84.90
64886;BME280;51514;52.206;5.114;2022-11-18T13:37:20;100333.50;;;11.07;85.09
64886;BME280;51514;52.206;5.114;2022-11-18T13:39:48;100338.91;;;11.07;84.78
64886;BME280;51514;52.206;5.114;2022-11-18T13:42:16;100335.88;;;11.10;84.89
64886;BME280;51514;52.206;5.114;2022-11-18T13:44:54;100342.56;;;11.14;85.06
64886;BME280;51514;52.206;5.114;2022-11-18T13:52:42;100345.44;;;11.21;85.21
64886;BME280;51514;52.206;5.114;2022-11-18T13:55:21;100340.88;;;11.21;85.05
64886;BME280;51514;52.206;5.114;2022-11-18T13:57:50;100343.59;;;11.21;85.00
64886;BME280;51514;52.206;5.114;2022-11-18T14:00:25;100347.28;;;11.20;84.97
64886;BME280;51514;52.206;5.114;2022-11-18T14:02:56;100347.28;;;11.20;84.61
64886;BME280;51514;52.206;5.114;2022-11-18T14:05:23;100356.75;;;11.16;84.65
64886;BME280;51514;52.206;5.114;2022-11-18T14:08:02;100349.03;;;11.13;84.54
64886;BME280;51514;52.206;5.114;2022-11-18T14:10:30;100356.06;;;11.14;84.67
64886;BME280;51514;52.206;5.114;2022-11-18T14:12:58;100354.75;;;11.10;84.36
64886;BME280;51514;52.206;5.114;2022-11-18T14:17:57;100349.69;;;11.07;84.61
64886;BME280;51514;52.206;5.114;2022-11-18T14:20:25;100348.84;;;11.07;84.59
64886;BME280;51514;52.206;5.114;2022-11-18T14:22:53;100356.94;;;11.07;84.78
64886;BME280;51514;52.206;5.114;2022-11-18T14:25:31;100362.50;;;11.05;84.60
64886;BME280;51514;52.206;5.114;2022-11-18T14:28:11;100365.03;;;11.07;85.00
64886;BME280;51514;52.206;5.114;2022-11-18T14:30:37;100362.50;;;11.05;84.40
64886;BME280;51514;52.206;5.114;2022-11-18T14:33:09;100367.75;;;11.07;84.51
64886;BME280;51514;52.206;5.114;2022-11-18T14:38:21;100369.13;;;11.03;84.80
64886;BME280;51514;52.206;5.114;2022-11-18T14:40:55;100381.41;;;11.05;84.95
64886;BME280;51514;52.206;5.114;2022-11-18T14:43:21;100382.06;;;11.07;85.22
64886;BME280;51514;52.206;5.114;2022-11-18T14:45:46;100381.41;;;11.05;84.85
64886;BME280;51514;52.206;5.114;2022-11-18T14:48:14;100387.63;;;11.06;85.04